Time;durP1;ratioP1;P1;durP2;ratioP2;P2;SDS_P1;SDS_P2;PMS_P1;PMS_P2;Temp;Humidity;BMP_temperature;BMP_pressure;BME280_temperature;BME280_humidity;BME280_pressure;Samples;Min_cycle;Max_cycle;Signal;HPM_P1;HPM_P2
2022/07/10 00:03:12;;;;;;;2.85;1.10;;;;;;;22.18;69.84;99317.09;10413930;28;20409;-72
2022/07/10 00:08:13;;;;;;;5.63;1.50;;;;;;;22.09;69.81;99318.69;10413582;28;20049;-74
2022/07/10 00:13:13;;;;;;;3.95;1.42;;;;;;;21.78;69.57;99283.50;10414003;28;20045;-72
2022/07/10 00:18:14;;;;;;;6.10;1.45;;;;;;;21.96;69.65;99322.72;10414570;28;20048;-72
2022/07/10 00:23:15;;;;;;;12.30;1.63;;;;;;;21.27;69.59;99223.88;10413155;28;20041;-72
2022/07/10 00:28:16;;;;;;;5.60;1.50;;;;;;;21.81;69.43;99315.38;10413397;28;20053;-71
2022/07/10 00:33:17;;;;;;;8.02;1.60;;;;;;;21.77;69.26;99319.69;10413207;28;20052;-72
2022/07/10 00:38:17;;;;;;;9.07;1.52;;;;;;;21.72;68.80;99327.81;10414002;28;20084;-72
2022/07/10 00:43:18;;;;;;;4.70;1.80;;;;;;;20.88;68.40;99191.06;10412390;28;20493;-71
2022/07/10 00:48:19;;;;;;;4.82;1.30;;;;;;;21.65;68.05;99313.72;10383987;28;20042;-72
2022/07/10 00:53:20;;;;;;;4.43;1.23;;;;;;;21.56;67.40;99296.38;10372274;28;20046;-71
2022/07/10 00:58:21;;;;;;;6.57;1.40;;;;;;;21.49;66.87;99283.13;10371901;28;20042;-72
2022/07/10 01:03:21;;;;;;;13.88;1.52;;;;;;;20.96;66.25;99196.75;10371247;28;20037;-72
2022/07/10 01:08:22;;;;;;;8.35;1.23;;;;;;;21.69;65.83;99325.63;10371409;28;20092;-71
2022/07/10 01:13:23;;;;;;;10.07;1.90;;;;;;;21.01;65.37;99190.56;10370753;28;20040;-71
2022/07/10 01:18:25;;;;;;;13.30;2.10;;;;;;;21.40;64.75;99269.31;10372027;28;20038;-72
2022/07/10 01:23:26;;;;;;;9.35;1.42;;;;;;;21.69;64.43;99306.72;10371646;28;20042;-71
2022/07/10 01:28:29;;;;;;;10.52;1.65;;;;;;;21.70;64.12;99316.44;10386772;28;20081;-71
2022/07/10 01:33:29;;;;;;;7.85;1.73;;;;;;;21.58;63.99;99283.44;10371451;28;20132;-71
2022/07/10 01:38:30;;;;;;;8.40;1.20;;;;;;;21.68;63.52;99307.78;10388902;28;20140;-72
2022/07/10 01:43:31;;;;;;;30.75;2.28;;;;;;;21.04;63.24;99194.63;10413545;28;20049;-71
2022/07/10 01:48:32;;;;;;;4.57;1.10;;;;;;;21.79;62.74;99305.91;10419295;28;20068;-71
2022/07/10 01:53:33;;;;;;;7.35;1.40;;;;;;;21.84;62.49;99308.66;10418907;28;20033;-71
2022/07/10 01:58:34;;;;;;;8.93;1.50;;;;;;;21.55;62.36;99267.75;10418360;28;20050;-71
2022/07/10 02:08:54;;;;;;;21.63;3.50;;;;;;;21.26;61.84;99200.63;10418448;28;20045;-71
2022/07/10 02:13:55;;;;;;;9.35;1.90;;;;;;;22.02;61.40;99315.44;10418434;28;20050;-71
2022/07/10 02:18:56;;;;;;;10.45;1.67;;;;;;;22.02;60.75;99310.03;10417620;28;20045;-72
2022/07/10 02:23:57;;;;;;;9.48;1.40;;;;;;;22.03;60.94;99311.63;10417707;28;20146;-71
2022/07/10 02:28:58;;;;;;;7.85;1.33;;;;;;;22.23;60.22;99319.81;10418547;28;20481;-71
2022/07/10 02:33:58;;;;;;;9.52;1.20;;;;;;;22.31;58.84;99259.72;10418433;28;20045;-71
2022/07/10 02:38:59;;;;;;;9.32;1.35;;;;;;;22.85;57.68;99274.53;10417286;28;20137;-72
2022/07/10 02:44:00;;;;;;;9.60;1.60;;;;;;;23.28;57.20;99296.66;10417753;28;20076;-72
2022/07/10 02:49:01;;;;;;;9.18;1.63;;;;;;;23.69;55.90;99293.72;10417358;28;20528;-72
2022/07/10 02:54:02;;;;;;;9.13;1.77;;;;;;;23.78;55.35;99258.72;10417049;28;20131;-71
2022/07/10 02:59:03;;;;;;;14.30;2.17;;;;;;;24.47;54.85;99305.69;10416712;28;20041;-72
2022/07/10 03:04:04;;;;;;;13.35;1.50;;;;;;;24.96;53.42;99266.66;10416520;28;20045;-72
2022/07/10 03:09:04;;;;;;;6.32;1.00;;;;;;;26.00;51.11;99308.59;10416028;28;20485;-72
2022/07/10 03:14:05;;;;;;;11.18;1.40;;;;;;;26.99;49.62;99285.66;10416648;28;20042;-72
2022/07/10 03:19:06;;;;;;;12.60;1.90;;;;;;;28.20;47.34;99286.84;10415923;28;20038;-72
2022/07/10 03:24:07;;;;;;;5.88;1.38;;;;;;;29.44;44.63;99287.94;10416300;28;20443;-72
2022/07/10 03:29:08;;;;;;;4.63;1.55;;;;;;;30.23;42.30;99288.81;10415644;28;20042;-72
2022/07/10 03:34:10;;;;;;;5.72;1.48;;;;;;;30.06;41.39;99195.69;10415182;28;20497;-72
2022/07/10 03:39:10;;;;;;;10.90;2.05;;;;;;;31.20;40.28;99284.63;10415617;28;20053;-72
2022/07/10 03:44:11;;;;;;;21.63;2.60;;;;;;;31.29;39.05;99245.06;10408841;28;20038;-72
2022/07/10 03:49:12;;;;;;;24.02;2.47;;;;;;;31.78;38.14;99272.00;10386789;28;20050;-72
2022/07/10 03:54:13;;;;;;;6.32;1.60;;;;;;;31.16;37.67;99213.16;10373426;28;20061;-72
2022/07/10 03:59:13;;;;;;;6.88;1.77;;;;;;;31.68;37.62;99292.44;10374202;28;20045;-72
2022/07/10 04:04:14;;;;;;;5.85;1.48;;;;;;;32.10;37.20;99295.19;10384082;28;20041;-72
2022/07/10 04:09:15;;;;;;;19.00;1.83;;;;;;;32.31;37.07;99283.34;10385676;28;20041;-72
2022/07/10 04:14:16;;;;;;;6.10;1.60;;;;;;;32.12;36.66;99281.91;10405988;28;20816;-72
2022/07/10 04:19:18;;;;;;;5.55;1.60;;;;;;;32.31;35.83;99275.91;10413143;28;20043;-72
2022/07/10 04:24:19;;;;;;;15.73;2.13;;;;;;;32.01;36.09;99276.03;10413539;28;20096;-72
2022/07/10 04:29:19;;;;;;;11.38;2.10;;;;;;;31.75;35.85;99188.34;10413556;28;20095;-72
2022/07/10 04:34:20;;;;;;;7.90;1.70;;;;;;;32.18;34.88;99277.81;10412173;28;20060;-74
2022/07/10 04:39:21;;;;;;;9.30;1.85;;;;;;;31.97;36.02;99277.84;10414279;28;20080;-72
2022/07/10 04:44:22;;;;;;;11.55;2.10;;;;;;;31.93;35.71;99265.13;10412578;28;20063;-72
2022/07/10 04:49:23;;;;;;;11.32;2.53;;;;;;;31.79;36.09;99268.13;10412972;28;20128;-72
2022/07/10 04:54:24;;;;;;;12.45;2.20;;;;;;;31.63;35.24;99254.19;10412599;28;20067;-72
2022/07/10 04:59:25;;;;;;;7.18;1.63;;;;;;;31.33;35.46;99258.91;10413214;28;20041;-72
2022/07/10 05:04:25;;;;;;;19.70;2.45;;;;;;;31.67;35.30;99238.66;10412306;28;20042;-72
2022/07/10 05:09:26;;;;;;;13.13;2.55;;;;;;;31.71;34.83;99253.34;10412686;28;20037;-74
2022/07/10 05:14:27;;;;;;;15.50;1.67;;;;;;;31.23;34.30;99202.50;10412827;28;20171;-72
2022/07/10 05:19:28;;;;;;;5.72;1.10;;;;;;;31.27;34.96;99244.56;10416350;28;20087;-72
2022/07/10 05:24:29;;;;;;;7.47;1.45;;;;;;;30.78;34.83;99211.28;10434560;28;20087;-74
2022/07/10 05:29:30;;;;;;;9.50;1.38;;;;;;;30.30;35.28;99149.41;10448670;28;20476;-73
2022/07/10 05:34:31;;;;;;;21.60;2.00;;;;;;;31.00;34.99;99236.84;10419811;28;20098;-71
2022/07/10 05:39:31;;;;;;;10.60;1.58;;;;;;;30.73;34.69;99194.22;10435748;28;20083;-70
2022/07/10 05:44:32;;;;;;;14.13;1.88;;;;;;;30.89;34.16;99201.53;10428001;28;20127;-71
2022/07/10 05:49:33;;;;;;;9.00;1.70;;;;;;;30.55;34.25;99108.53;10418791;28;20061;-71
2022/07/10 05:54:34;;;;;;;8.23;1.30;;;;;;;31.30;34.01;99213.72;10419096;28;20046;-71
2022/07/10 05:59:35;;;;;;;29.15;3.47;;;;;;;31.24;34.74;99208.78;10419037;28;20052;-71
2022/07/10 06:04:36;;;;;;;23.33;2.65;;;;;;;31.21;34.41;99209.44;10419305;28;20041;-71
2022/07/10 06:09:36;;;;;;;8.52;1.63;;;;;;;31.38;33.45;99204.66;10417927;28;20049;-70
2022/07/10 06:14:37;;;;;;;8.50;2.00;;;;;;;31.32;33.43;99199.66;10417859;28;20068;-69
2022/07/10 06:19:38;;;;;;;15.50;2.42;;;;;;;31.45;32.86;99193.16;10418441;28;20044;-68
2022/07/10 06:24:39;;;;;;;10.82;1.48;;;;;;;31.57;31.85;99179.47;10417628;28;20080;-69
2022/07/10 06:29:40;;;;;;;8.00;1.52;;;;;;;31.76;32.39;99186.41;10416860;28;20037;-69
2022/07/10 06:34:41;;;;;;;8.05;1.80;;;;;;;31.30;31.53;99081.22;10417547;28;20045;-69
2022/07/10 06:39:42;;;;;;;26.77;2.88;;;;;;;32.09;31.59;99178.19;10416096;28;20477;-71
2022/07/10 06:44:44;;;;;;;25.08;2.90;;;;;;;31.75;30.74;99067.56;10395504;28;20505;-71
2022/07/10 06:49:48;;;;;;;23.02;2.70;;;;;;;32.65;29.55;99172.22;10376632;28;20045;-68
2022/07/10 06:54:49;;;;;;;11.07;2.20;;;;;;;32.66;29.42;99140.81;10399417;28;20041;-70
2022/07/10 06:59:51;;;;;;;42.15;7.07;;;;;;;32.90;28.65;99170.25;10416296;28;20104;-67
2022/07/10 07:04:51;;;;;;;41.07;3.53;;;;;;;32.35;28.59;99051.47;10406368;28;20057;-69
2022/07/10 07:09:52;;;;;;;29.23;2.83;;;;;;;33.10;28.35;99122.56;10415879;28;20037;-74
2022/07/10 07:14:53;;;;;;;26.45;2.67;;;;;;;33.02;27.96;99051.97;10416478;28;20469;-69
2022/07/10 07:25:15;;;;;;;28.60;6.18;;;;;;;33.45;26.02;99107.41;10415173;28;20120;-68
2022/07/10 07:30:16;;;;;;;21.23;6.30;;;;;;;33.69;26.71;99104.56;10415685;28;20556;-71
2022/07/10 07:35:17;;;;;;;12.98;2.35;;;;;;;33.34;25.76;98997.03;10414131;28;20080;-70
2022/07/10 07:40:22;;;;;;;19.98;4.15;;;;;;;33.61;25.87;99015.44;10414360;28;20091;-72
2022/07/10 07:45:23;;;;;;;17.63;2.97;;;;;;;34.19;25.82;99069.22;10413999;28;20091;-69
2022/07/10 07:50:27;;;;;;;31.63;4.70;;;;;;;34.26;25.59;99080.44;10414030;28;20437;-70
2022/07/10 07:55:28;;;;;;;20.33;4.47;;;;;;;34.46;24.70;99082.13;10412778;28;20046;-75
2022/07/10 08:00:30;;;;;;;21.50;3.83;;;;;;;34.82;24.93;99060.84;10413843;28;20128;-72
2022/07/10 08:05:31;;;;;;;40.40;4.10;;;;;;;34.98;24.54;99066.31;10414645;28;20053;-72
2022/07/10 08:10:33;;;;;;;20.10;3.30;;;;;;;34.86;24.50;99049.91;10414654;28;20041;-72
2022/07/10 08:15:36;;;;;;;21.27;3.03;;;;;;;34.93;24.43;99037.03;10412687;28;20746;-72
2022/07/10 08:20:37;;;;;;;26.35;3.83;;;;;;;35.01;24.30;99039.97;10407143;28;20417;-73
2022/07/10 08:25:38;;;;;;;24.73;3.50;;;;;;;34.92;24.81;99045.69;10451026;28;20036;-70
2022/07/10 08:30:39;;;;;;;27.20;2.85;;;;;;;34.31;24.91;98958.88;10437976;28;20076;-73
2022/07/10 08:35:40;;;;;;;44.28;3.60;;;;;;;34.42;24.70;98926.81;10412489;28;20065;-68
2022/07/10 08:40:42;;;;;;;13.60;2.78;;;;;;;34.98;24.36;99020.22;10413162;28;20049;-71
2022/07/10 08:45:43;;;;;;;24.42;3.53;;;;;;;35.26;24.35;99030.22;10412933;28;20501;-72
2022/07/10 08:50:47;;;;;;;19.38;3.05;;;;;;;35.40;23.74;99016.69;10387469;28;20052;-70
2022/07/10 08:55:48;;;;;;;24.90;2.78;;;;;;;35.37;23.57;98981.53;10404036;28;20128;-73
2022/07/10 09:00:49;;;;;;;38.13;3.90;;;;;;;35.82;23.42;99013.09;10418843;28;20041;-72
2022/07/10 09:05:51;;;;;;;56.58;5.18;;;;;;;35.60;23.03;98987.09;10380664;28;20490;-71
2022/07/10 09:10:52;;;;;;;22.50;4.10;;;;;;;35.86;23.23;98980.78;10380401;28;20042;-72
2022/07/10 09:15:54;;;;;;;25.67;3.03;;;;;;;35.76;22.65;98998.00;10377909;28;20045;-71
2022/07/10 09:20:54;;;;;;;22.63;4.10;;;;;;;35.80;22.70;99001.63;10417109;28;20062;-71
2022/07/10 09:25:55;;;;;;;25.17;5.30;;;;;;;35.01;22.67;98847.59;10399279;28;20045;-73
2022/07/10 09:30:57;;;;;;;15.32;3.05;;;;;;;35.80;22.25;98968.47;10421058;28;20049;-76
2022/07/10 09:36:06;;;;;;;22.45;3.25;;;;;;;36.11;21.96;98986.75;10433140;28;20090;-72
2022/07/10 09:41:25;;;;;;;42.83;4.63;;;;;;;36.28;22.02;98974.34;10452721;28;20041;-77
2022/07/10 09:46:31;;;;;;;45.28;5.07;;;;;;;36.28;21.96;98977.09;10438636;28;20048;-75
2022/07/10 09:51:38;;;;;;;31.08;4.00;;;;;;;36.40;22.14;98945.66;10448381;28;20041;-75
2022/07/10 09:56:44;;;;;;;22.25;3.13;;;;;;;36.46;21.37;98960.75;10419190;28;20045;-75
2022/07/10 10:01:46;;;;;;;29.92;3.30;;;;;;;36.29;21.89;98904.06;10418462;28;20041;-79
2022/07/10 10:06:54;;;;;;;;;;;;;;;36.85;21.90;98934.75;10418272;28;20053;-79
2022/07/10 10:12:02;;;;;;;38.60;3.55;;;;;;;36.17;21.74;98873.06;10418463;28;19940;-75
2022/07/10 10:17:07;;;;;;;19.60;3.30;;;;;;;36.53;22.13;98918.59;10418250;28;20034;-79
2022/07/10 10:22:09;;;;;;;29.77;4.03;;;;;;;36.33;22.34;98863.41;10422768;28;20083;-74
2022/07/10 10:27:10;;;;;;;31.40;3.53;;;;;;;36.68;22.15;98894.66;10458120;28;20072;-76
2022/07/10 10:32:11;;;;;;;26.20;3.78;;;;;;;36.20;21.98;98808.72;10467642;28;20048;-76
2022/07/10 10:37:27;;;;;;;39.65;5.05;;;;;;;36.79;22.45;98888.06;10484155;28;20064;-76
2022/07/10 10:42:36;;;;;;;18.15;3.40;;;;;;;36.93;23.44;98886.63;10458722;28;20059;-76
2022/07/10 10:48:04;;;;;;;19.33;3.65;;;;;;;37.20;21.61;98877.00;10455864;28;20437;-75
2022/07/10 10:53:31;;;;;;;25.52;3.35;;;;;;;36.91;22.15;98877.88;10455559;28;20053;-74
2022/07/10 10:58:39;;;;;;;27.65;4.32;;;;;;;36.90;22.60;98898.44;10416416;28;20048;-74
2022/07/10 11:03:40;;;;;;;25.65;5.25;;;;;;;37.15;23.18;98882.09;10416690;28;20133;-76
2022/07/10 11:08:45;;;;;;;22.73;4.18;;;;;;;37.13;22.48;98874.19;10436969;28;20040;-72
2022/07/10 11:13:47;;;;;;;25.20;4.00;;;;;;;37.06;22.70;98863.03;10456427;28;20055;-76
2022/07/10 11:18:53;;;;;;;23.75;4.13;;;;;;;36.50;22.03;98765.25;10456138;28;20123;-77
2022/07/10 11:24:30;;;;;;;25.70;4.65;;;;;;;37.08;22.38;98857.94;10457258;28;20045;-79
2022/07/10 11:29:37;;;;;;;33.58;4.63;;;;;;;36.04;22.79;98685.38;10455291;28;20128;-75
2022/07/10 11:34:38;;;;;;;32.67;4.55;;;;;;;36.97;23.05;98824.56;10456891;28;20040;-73
2022/07/10 11:39:39;;;;;;;92.95;39.33;;;;;;;37.18;23.52;98840.59;10449787;28;20048;-70
2022/07/10 11:44:40;;;;;;;38.53;16.53;;;;;;;37.16;23.20;98840.19;10460480;28;20151;-71
2022/07/10 11:49:47;;;;;;;31.10;5.40;;;;;;;36.52;22.70;98739.97;10455129;28;20505;-73
2022/07/10 11:54:49;;;;;;;19.90;4.65;;;;;;;36.66;23.46;98717.97;10439681;28;20044;-79
2022/07/10 11:59:50;;;;;;;21.73;4.22;;;;;;;37.09;22.83;98776.44;10451749;28;20554;-79
2022/07/10 12:04:51;;;;;;;31.47;4.73;;;;;;;37.05;22.53;98775.66;10443439;28;20047;-72
2022/07/10 12:09:55;;;;;;;29.83;4.20;;;;;;;37.24;22.94;98805.03;10445628;28;20041;-73
2022/07/10 12:14:56;;;;;;;28.85;4.15;;;;;;;36.55;22.93;98701.28;10449315;28;20500;-72
2022/07/10 12:19:57;;;;;;;22.90;3.97;;;;;;;36.48;23.04;98697.66;10448014;28;20041;-70
2022/07/10 12:24:58;;;;;;;19.47;3.77;;;;;;;37.30;22.23;98794.41;10451218;28;20041;-69
2022/07/10 12:30:02;;;;;;;35.83;4.18;;;;;;;37.43;22.22;98781.84;10455844;28;20048;-71
2022/07/10 12:35:07;;;;;;;23.88;3.45;;;;;;;37.41;21.70;98784.19;10454464;28;20064;-70
2022/07/10 12:40:11;;;;;;;42.03;4.53;;;;;;;37.30;21.35;98766.72;10448300;28;20049;-72
2022/07/10 12:45:15;;;;;;;22.00;3.78;;;;;;;37.38;20.97;98777.44;10455445;28;20041;-70
2022/07/10 12:50:20;;;;;;;45.35;4.45;;;;;;;36.56;21.15;98663.38;10453805;28;20068;-71
2022/07/10 12:55:21;;;;;;;36.65;3.90;;;;;;;37.18;20.90;98767.81;10454269;28;20068;-71
2022/07/10 13:00:27;;;;;;;25.55;4.20;;;;;;;36.66;20.97;98673.72;10454549;28;20404;-69
2022/07/10 13:05:38;;;;;;;36.97;4.45;;;;;;;37.33;20.39;98768.72;10453542;28;20079;-71
2022/07/10 13:10:41;;;;;;;37.53;5.03;;;;;;;37.25;20.53;98751.28;10451601;28;20041;-71
2022/07/10 13:15:49;;;;;;;27.33;4.25;;;;;;;37.29;20.18;98754.06;10482511;28;20504;-71
2022/07/10 13:20:52;;;;;;;25.83;3.95;;;;;;;37.01;20.18;98716.72;10457333;28;20051;-70
2022/07/10 13:25:53;;;;;;;21.40;4.22;;;;;;;37.02;19.89;98745.97;10451270;28;20408;-70
2022/07/10 13:30:54;;;;;;;30.38;4.22;;;;;;;36.60;20.02;98647.59;10453248;28;20041;-73
2022/07/10 13:35:55;;;;;;;20.70;3.85;;;;;;;37.16;20.42;98731.44;10438330;28;20556;-76
2022/07/10 13:40:56;;;;;;;28.17;5.10;;;;;;;36.17;19.87;98582.81;10427607;28;20047;-70
2022/07/10 13:45:59;;;;;;;38.42;4.72;;;;;;;36.99;19.72;98742.00;10460218;28;20095;-70
2022/07/10 13:51:00;;;;;;;31.50;4.65;;;;;;;36.05;19.85;98601.31;10457637;28;20124;-72
2022/07/10 13:56:00;;;;;;;33.85;4.25;;;;;;;36.93;20.02;98721.34;10435583;28;20127;-68
2022/07/10 14:01:03;;;;;;;34.78;5.05;;;;;;;36.80;19.84;98706.25;10427136;28;20478;-69
2022/07/10 14:06:04;;;;;;;25.63;4.00;;;;;;;36.73;20.06;98718.03;10455303;28;20076;-69
2022/07/10 14:11:06;;;;;;;23.08;4.55;;;;;;;36.51;20.18;98688.59;10459883;28;20187;-68
2022/07/10 14:16:07;;;;;;;32.97;4.45;;;;;;;36.54;20.25;98696.16;10460154;28;20041;-69
2022/07/10 14:21:08;;;;;;;31.65;5.18;;;;;;;35.73;19.80;98594.63;10458974;28;20049;-70
2022/07/10 14:26:11;;;;;;;35.55;4.15;;;;;;;36.51;19.97;98725.34;10457505;28;20072;-71
2022/07/10 14:31:12;;;;;;;48.85;5.80;;;;;;;36.17;20.12;98677.63;10450190;28;20068;-68
2022/07/10 14:36:13;;;;;;;22.93;3.80;;;;;;;35.74;20.53;98623.84;10465115;28;20512;-71
2022/07/10 14:41:15;;;;;;;33.80;4.72;;;;;;;36.25;20.36;98729.03;10459093;28;20045;-68
2022/07/10 14:46:16;;;;;;;46.30;5.10;;;;;;;36.06;20.58;98738.31;10458917;28;20496;-68
2022/07/10 14:51:17;;;;;;;40.57;4.73;;;;;;;35.84;20.43;98723.44;10436358;28;21103;-73
2022/07/10 14:56:19;;;;;;;32.25;5.00;;;;;;;35.26;20.27;98654.00;10438992;28;20313;-73
2022/07/10 15:01:20;;;;;;;33.70;5.85;;;;;;;35.35;20.42;98693.97;10457624;28;20068;-73
2022/07/10 15:06:21;;;;;;;44.00;5.55;;;;;;;35.51;20.79;98734.41;10428182;28;20103;-73
2022/07/10 15:11:23;;;;;;;33.63;5.57;;;;;;;35.10;20.70;98690.88;10414651;28;20405;-73
2022/07/10 15:16:23;;;;;;;46.88;6.32;;;;;;;35.18;20.19;98741.44;10457976;28;20558;-70
2022/07/10 15:21:24;;;;;;;34.35;5.32;;;;;;;34.47;20.57;98663.84;10498682;28;20064;-72
2022/07/10 15:26:25;;;;;;;31.10;4.68;;;;;;;34.81;21.03;98728.22;10498067;28;20067;-69
2022/07/10 15:31:27;;;;;;;38.38;4.55;;;;;;;34.72;21.18;98747.00;10497278;28;20580;-69
2022/07/10 18:39:02;;;;;;;35.38;4.85;;;;;;;28.92;33.83;98844.91;10315687;28;20058;-67
2022/07/10 18:44:04;;;;;;;29.75;4.90;;;;;;;28.34;34.75;98772.56;10324201;28;20038;-67
2022/07/10 18:49:05;;;;;;;36.22;5.22;;;;;;;28.72;34.94;98834.66;10322542;28;20049;-68
2022/07/10 18:54:06;;;;;;;36.85;5.22;;;;;;;28.66;35.25;98837.59;10325058;28;20050;-67
2022/07/10 18:59:07;;;;;;;30.05;5.88;;;;;;;28.08;35.38;98770.63;10325708;28;20130;-69
2022/07/10 19:04:08;;;;;;;48.88;6.60;;;;;;;28.30;35.88;98815.25;10326001;28;20593;-68
2022/07/10 19:09:09;;;;;;;40.40;5.93;;;;;;;27.54;36.15;98693.75;10312229;28;20134;-68
2022/07/10 19:14:11;;;;;;;48.13;7.22;;;;;;;28.20;36.65;98811.75;10284903;28;20590;-68
2022/07/10 19:19:12;;;;;;;48.47;6.20;;;;;;;28.04;37.05;98816.09;10310964;28;20050;-69
2022/07/10 19:24:13;;;;;;;39.22;5.75;;;;;;;28.03;37.18;98827.31;10324490;28;20525;-68
2022/07/10 19:29:14;;;;;;;28.20;4.80;;;;;;;27.98;37.33;98839.22;10322199;28;20062;-68
2022/07/10 19:34:15;;;;;;;33.67;10.15;;;;;;;27.95;37.38;98837.13;10299185;28;20046;-68
2022/07/10 19:39:17;;;;;;;30.08;4.80;;;;;;;27.81;37.64;98839.19;10295563;28;20058;-68
2022/07/10 19:44:18;;;;;;;28.97;4.03;;;;;;;27.74;37.91;98851.34;10296774;28;20498;-68
2022/07/10 19:49:19;;;;;;;44.22;5.35;;;;;;;26.94;38.31;98740.75;10297540;28;20044;-68
2022/07/10 19:54:21;;;;;;;36.17;4.85;;;;;;;27.51;38.64;98877.91;10287305;28;20035;-68
2022/07/10 19:59:22;;;;;;;33.08;4.82;;;;;;;27.42;38.76;98879.00;10256521;29;20051;-68
2022/07/10 20:04:22;;;;;;;19.92;3.78;;;;;;;27.33;38.79;98880.91;10256594;29;20133;-68
2022/07/10 20:09:23;;;;;;;25.90;4.00;;;;;;;26.65;38.99;98782.91;10255790;28;20122;-68
2022/07/10 20:14:27;;;;;;;27.90;3.97;;;;;;;26.82;39.32;98832.03;10255269;28;20051;-68
2022/07/10 20:19:30;;;;;;;18.83;3.35;;;;;;;27.38;39.03;98933.38;10286861;28;20039;-68
2022/07/10 20:24:30;;;;;;;16.85;3.65;;;;;;;26.86;39.16;98859.47;10255741;29;20093;-68
2022/07/10 20:29:32;;;;;;;20.45;3.67;;;;;;;27.39;39.53;98942.34;10255562;28;20109;-68
2022/07/10 20:34:32;;;;;;;20.90;2.80;;;;;;;27.27;39.94;98942.94;10287140;28;20050;-68
2022/07/10 20:39:33;;;;;;;26.38;3.20;;;;;;;26.96;39.88;98910.19;10256573;28;20391;-69
2022/07/10 20:44:34;;;;;;;16.67;2.50;;;;;;;26.98;40.02;98935.19;10264255;28;20606;-68
2022/07/10 20:49:35;;;;;;;15.48;2.92;;;;;;;26.73;39.46;98912.91;10255296;29;20170;-68
2022/07/10 20:54:36;;;;;;;13.77;2.78;;;;;;;26.96;39.58;98948.34;10255252;29;20039;-69
2022/07/10 20:59:37;;;;;;;39.90;3.08;;;;;;;26.71;39.71;98917.06;10254128;29;20051;-68
2022/07/10 21:04:37;;;;;;;24.23;3.30;;;;;;;26.16;39.81;98836.38;10253346;29;20102;-68
2022/07/10 21:09:38;;;;;;;17.08;2.70;;;;;;;26.13;40.17;98834.25;10254456;29;20051;-68
2022/07/10 21:14:40;;;;;;;19.55;3.53;;;;;;;26.38;39.98;98904.47;10254760;29;20069;-68
2022/07/10 21:19:41;;;;;;;16.25;2.60;;;;;;;26.67;40.47;98935.16;10279097;28;20567;-68
2022/07/10 21:24:41;;;;;;;11.15;2.05;;;;;;;26.65;40.02;98935.44;10291817;28;20043;-68
2022/07/10 21:29:42;;;;;;;14.93;2.55;;;;;;;26.49;40.31;98910.50;10292443;28;20110;-68
2022/07/10 21:34:43;;;;;;;18.17;2.95;;;;;;;26.28;40.74;98874.72;10292807;28;20133;-68
2022/07/10 21:39:44;;;;;;;14.57;3.05;;;;;;;26.55;40.71;98903.81;10292782;28;20046;-68
2022/07/10 21:44:45;;;;;;;15.43;3.08;;;;;;;26.39;40.56;98881.56;10292042;28;20062;-68
2022/07/10 21:49:45;;;;;;;14.70;2.75;;;;;;;26.34;41.03;98878.94;10264412;28;20503;-68
2022/07/10 21:54:50;;;;;;;22.05;3.35;;;;;;;25.12;41.12;98691.22;10251785;28;20047;-68
2022/07/10 21:59:50;;;;;;;21.85;3.03;;;;;;;26.00;41.02;98856.88;10252070;29;20054;-68
2022/07/10 22:04:53;;;;;;;17.55;2.97;;;;;;;26.08;41.09;98916.00;10251583;29;20050;-68
2022/07/10 22:09:54;;;;;;;19.43;3.67;;;;;;;25.59;41.43;98855.00;10283132;28;20075;-68
2022/07/10 22:14:56;;;;;;;24.85;3.72;;;;;;;26.13;41.61;98962.19;10251869;29;20259;-68
2022/07/10 22:19:57;;;;;;;22.20;3.30;;;;;;;26.04;41.53;98947.69;10252030;29;20151;-68
2022/07/10 22:24:58;;;;;;;27.63;3.13;;;;;;;25.42;42.09;98891.75;10250956;28;20043;-68
2022/07/10 22:29:58;;;;;;;24.17;3.25;;;;;;;26.05;41.79;99037.16;10251442;29;20110;-69
2022/07/10 22:34:59;;;;;;;18.75;2.97;;;;;;;25.96;42.34;99012.56;10251591;29;20197;-68
2022/07/10 22:40:00;;;;;;;17.40;2.78;;;;;;;25.31;42.38;98908.53;10251556;29;20072;-68
2022/07/10 22:45:01;;;;;;;24.75;3.10;;;;;;;25.82;43.32;99022.66;10251389;29;20039;-68
2022/07/10 22:50:02;;;;;;;14.18;2.47;;;;;;;25.72;43.45;99025.50;10250030;29;20039;-68
2022/07/10 22:55:03;;;;;;;17.40;2.90;;;;;;;25.61;44.00;99021.38;10250707;29;20159;-69
2022/07/10 23:00:04;;;;;;;16.80;2.67;;;;;;;25.35;44.44;99004.72;10250325;29;20042;-68
2022/07/10 23:05:06;;;;;;;19.20;3.10;;;;;;;25.19;44.45;98987.88;10250887;28;20130;-69
2022/07/10 23:10:07;;;;;;;15.73;2.88;;;;;;;25.35;44.70;99023.75;10257883;29;20047;-68
2022/07/10 23:15:08;;;;;;;15.95;3.22;;;;;;;25.40;45.59;99019.03;10257570;29;20422;-68
2022/07/10 23:20:09;;;;;;;13.65;2.75;;;;;;;25.18;45.30;98978.88;10258312;29;20039;-68
2022/07/10 23:25:10;;;;;;;23.33;3.15;;;;;;;25.05;47.07;98960.59;10257630;28;20039;-68
2022/07/10 23:30:11;;;;;;;14.80;3.17;;;;;;;24.79;46.71;98935.75;10257054;29;20062;-68
2022/07/10 23:35:12;;;;;;;17.90;3.03;;;;;;;25.11;47.22;98997.47;10257265;29;20039;-68
2022/07/10 23:40:13;;;;;;;15.50;2.60;;;;;;;25.00;48.37;98977.78;10257387;29;20419;-68
2022/07/10 23:45:14;;;;;;;19.08;2.97;;;;;;;24.99;47.21;98962.59;10257285;29;20040;-68
2022/07/10 23:50:14;;;;;;;13.80;2.70;;;;;;;23.11;46.58;98652.31;10256447;29;20051;-68
2022/07/10 23:55:15;;;;;;;14.57;2.55;;;;;;;25.03;47.54;98949.22;10255994;29;20051;-69
